Time;durP1;ratioP1;P1;durP2;ratioP2;P2;SDS_P1;SDS_P2;PMS_P1;PMS_P2;Temp;Humidity;BMP_temperature;BMP_pressure;BME280_temperature;BME280_humidity;BME280_pressure;Samples;Min_cycle;Max_cycle;Signal;HPM_P1;HPM_P2
2024/01/16 00:00:15;;;;;;;1999.90;999.90;;;0.80;99.90;;;;;;5086669;28;20013;-68
2024/01/16 00:02:41;;;;;;;1999.90;999.90;;;1.00;99.90;;;;;;5077883;28;20101;-67
2024/01/16 00:05:07;;;;;;;1999.90;999.90;;;1.10;99.90;;;;;;5081055;28;20109;-68
2024/01/16 00:07:35;;;;;;;1999.90;999.90;;;1.10;99.90;;;;;;5087738;28;20131;-68
2024/01/16 00:10:01;;;;;;;1999.90;999.90;;;1.20;99.90;;;;;;5078970;28;20065;-69
2024/01/16 00:12:26;;;;;;;1999.90;999.90;;;1.10;99.90;;;;;;5067688;28;20109;-68
2024/01/16 00:14:52;;;;;;;1999.90;999.90;;;1.10;99.90;;;;;;5086701;28;20441;-68
2024/01/16 00:17:18;;;;;;;1999.90;999.90;;;1.10;99.90;;;;;;5080344;28;20024;-68
2024/01/16 00:19:43;;;;;;;1999.90;999.90;;;1.00;99.90;;;;;;5091033;28;20028;-68
2024/01/16 00:22:09;;;;;;;1999.90;999.90;;;0.90;99.90;;;;;;5081943;28;20020;-68
2024/01/16 00:24:35;;;;;;;1999.90;999.90;;;1.00;99.90;;;;;;5085487;28;20150;-68
2024/01/16 00:27:00;;;;;;;1999.90;999.90;;;1.00;99.90;;;;;;5086064;28;20029;-68
2024/01/16 00:29:26;;;;;;;1999.90;999.90;;;1.10;99.90;;;;;;5068097;28;20036;-68
2024/01/16 00:31:52;;;;;;;1999.90;999.90;;;1.10;99.90;;;;;;5086367;28;20469;-68
2024/01/16 00:34:18;;;;;;;1999.90;999.90;;;1.10;99.90;;;;;;5087579;28;20028;-68
2024/01/16 00:36:43;;;;;;;1999.90;999.90;;;1.00;99.90;;;;;;5063899;28;20020;-68
2024/01/16 00:39:09;;;;;;;1999.90;999.90;;;0.90;99.90;;;;;;5081686;28;20048;-68
2024/01/16 00:41:35;;;;;;;1999.90;999.90;;;0.90;99.90;;;;;;5087597;28;20107;-68
2024/01/16 00:44:01;;;;;;;1999.90;999.90;;;0.80;99.90;;;;;;5079624;28;20050;-68
2024/01/16 00:46:26;;;;;;;1999.90;999.90;;;0.80;99.90;;;;;;5087780;28;20478;-68
2024/01/16 00:48:52;;;;;;;1999.90;999.90;;;0.80;99.90;;;;;;5090915;28;20035;-68
2024/01/16 00:51:18;;;;;;;1999.90;999.90;;;0.70;99.90;;;;;;5077633;28;20107;-67
2024/01/16 00:53:44;;;;;;;1999.90;999.90;;;0.70;99.90;;;;;;5091256;28;20046;-68
2024/01/16 00:56:10;;;;;;;1999.90;999.90;;;0.70;99.90;;;;;;5073604;28;20024;-68
2024/01/16 00:58:36;;;;;;;1999.90;999.90;;;0.60;99.90;;;;;;5081079;28;20296;-68
2024/01/16 01:01:02;;;;;;;1999.90;999.90;;;0.60;99.90;;;;;;5090074;28;20079;-68
2024/01/16 01:03:27;;;;;;;1999.90;999.90;;;0.60;99.90;;;;;;5072643;28;20028;-68
2024/01/16 01:05:53;;;;;;;1999.90;999.90;;;0.60;99.90;;;;;;5068931;28;20056;-68
2024/01/16 01:08:19;;;;;;;1999.90;999.90;;;0.60;99.90;;;;;;5084247;28;20036;-68
2024/01/16 01:10:44;;;;;;;1999.90;999.90;;;0.60;99.90;;;;;;5084094;28;20055;-68
2024/01/16 01:13:10;;;;;;;1999.90;999.90;;;0.60;99.90;;;;;;5092886;28;20434;-68
2024/01/16 01:15:36;;;;;;;1999.90;999.90;;;0.80;99.90;;;;;;5080238;28;20032;-68
2024/01/16 01:18:02;;;;;;;1999.90;999.90;;;0.90;99.90;;;;;;5083064;28;20032;-68
2024/01/16 01:20:28;;;;;;;1999.90;999.90;;;1.00;99.90;;;;;;5092014;28;20036;-69
2024/01/16 01:22:53;;;;;;;1999.90;999.90;;;1.00;99.90;;;;;;5082133;28;20085;-69
2024/01/16 01:25:19;;;;;;;1999.90;999.90;;;1.00;99.90;;;;;;5090607;28;20165;-68
2024/01/16 01:27:45;;;;;;;1999.90;999.90;;;1.00;99.90;;;;;;5066304;28;20037;-67
2024/01/16 01:30:11;;;;;;;1999.90;999.90;;;1.00;99.90;;;;;;5065877;28;20472;-68
2024/01/16 01:32:38;;;;;;;1999.90;999.90;;;1.00;99.90;;;;;;5086113;28;20036;-67
2024/01/16 01:35:05;;;;;;;1999.90;999.90;;;1.00;99.90;;;;;;5084286;28;20028;-68
2024/01/16 01:37:30;;;;;;;1999.90;999.90;;;1.00;99.90;;;;;;5072224;28;20372;-68
2024/01/16 01:39:56;;;;;;;1999.90;999.90;;;0.90;99.90;;;;;;5073906;28;20115;-69
2024/01/16 01:42:22;;;;;;;1999.90;999.90;;;0.80;99.90;;;;;;5083159;28;20339;-68
2024/01/16 01:44:48;;;;;;;1999.90;999.90;;;0.80;99.90;;;;;;5074946;28;20025;-69
2024/01/16 01:47:14;;;;;;;1999.90;999.90;;;0.70;99.90;;;;;;5072732;28;20276;-68
2024/01/16 01:49:41;;;;;;;1999.90;999.90;;;0.80;99.90;;;;;;5099072;28;20039;-68
2024/01/16 01:52:07;;;;;;;1999.90;999.90;;;0.80;99.90;;;;;;5072739;28;20029;-70
2024/01/16 01:54:36;;;;;;;1999.90;999.90;;;0.80;99.90;;;;;;5073154;28;20040;-68
2024/01/16 01:57:02;;;;;;;1999.90;999.90;;;0.70;99.90;;;;;;5083998;28;20024;-68
2024/01/16 01:59:29;;;;;;;1999.90;999.90;;;0.70;99.90;;;;;;5091438;28;20552;-69
2024/01/16 02:01:55;;;;;;;1999.90;999.90;;;0.80;99.90;;;;;;5067023;28;20040;-69
2024/01/16 02:04:22;;;;;;;1999.90;999.90;;;0.80;99.90;;;;;;5091565;28;20438;-69
2024/01/16 02:06:49;;;;;;;1999.90;999.90;;;0.80;99.90;;;;;;5094195;28;20453;-68
2024/01/16 02:09:14;;;;;;;1999.90;999.90;;;0.80;99.90;;;;;;5095296;28;20108;-68
2024/01/16 02:11:41;;;;;;;1999.90;999.90;;;0.80;99.90;;;;;;5095215;28;20382;-69
2024/01/16 02:14:07;;;;;;;1999.90;999.90;;;0.80;99.90;;;;;;5095004;28;20315;-69
2024/01/16 02:16:38;;;;;;;1999.90;999.90;;;0.80;99.90;;;;;;5077329;28;20029;-69
2024/01/16 02:19:04;;;;;;;1999.90;999.90;;;0.80;99.90;;;;;;5093654;28;20322;-69
2024/01/16 02:21:39;;;;;;;1999.90;999.90;;;0.70;99.90;;;;;;5094842;28;20032;-68
2024/01/16 02:24:11;;;;;;;1999.90;999.90;;;0.80;99.90;;;;;;5095265;28;20414;-68
2024/01/16 02:26:37;;;;;;;1999.90;999.90;;;0.80;99.90;;;;;;5094867;28;20032;-69
2024/01/16 02:29:05;;;;;;;1999.90;999.90;;;0.80;99.90;;;;;;5091623;28;20092;-68
2024/01/16 02:31:35;;;;;;;1999.90;999.90;;;0.80;99.90;;;;;;5095040;28;20044;-69
2024/01/16 02:34:01;;;;;;;1999.90;999.90;;;0.70;99.90;;;;;;5094517;28;20016;-69
2024/01/16 02:36:29;;;;;;;1999.90;999.90;;;0.70;99.90;;;;;;5094727;28;20150;-69
2024/01/16 02:38:55;;;;;;;1999.90;999.90;;;0.80;99.90;;;;;;5094461;28;20315;-69
2024/01/16 02:41:20;;;;;;;1999.90;999.90;;;0.80;99.90;;;;;;5094545;28;20027;-70
2024/01/16 02:43:46;;;;;;;1999.90;999.90;;;0.70;99.90;;;;;;5083680;28;20039;-69
2024/01/16 02:46:13;;;;;;;1999.90;999.90;;;0.70;99.90;;;;;;5094525;28;20023;-70
2024/01/16 02:48:39;;;;;;;1999.90;999.90;;;0.80;99.90;;;;;;5091429;28;20377;-69
2024/01/16 02:51:05;;;;;;;1999.90;999.90;;;0.70;99.90;;;;;;5093984;28;20032;-70
2024/01/16 02:53:31;;;;;;;1999.90;999.90;;;0.70;99.90;;;;;;5094478;28;20031;-69
2024/01/16 02:56:00;;;;;;;1999.90;999.90;;;0.70;99.90;;;;;;5093741;28;20027;-69
2024/01/16 02:58:27;;;;;;;1999.90;999.90;;;0.60;99.90;;;;;;5091513;28;20020;-70
2024/01/16 03:00:52;;;;;;;1999.90;999.90;;;0.60;99.90;;;;;;5081201;28;20465;-69
2024/01/16 03:03:18;;;;;;;1999.90;999.90;;;0.60;99.90;;;;;;5074113;28;20027;-70
2024/01/16 03:05:44;;;;;;;1999.90;999.90;;;0.60;99.90;;;;;;5086938;28;20055;-71
2024/01/16 03:08:10;;;;;;;1999.90;999.90;;;0.70;99.90;;;;;;5090439;28;20032;-69
2024/01/16 03:10:36;;;;;;;1999.90;999.90;;;0.70;99.90;;;;;;5094039;28;20020;-70
2024/01/16 03:13:02;;;;;;;1999.90;999.90;;;0.70;99.90;;;;;;5087120;28;20028;-69
2024/01/16 03:15:30;;;;;;;1999.90;999.90;;;0.60;99.90;;;;;;5094032;28;20343;-70
2024/01/16 03:17:57;;;;;;;1999.90;999.90;;;0.70;99.90;;;;;;5069147;28;20035;-69
2024/01/16 03:20:23;;;;;;;1999.90;999.90;;;0.70;99.90;;;;;;5080029;28;20433;-70
2024/01/16 03:22:49;;;;;;;1999.90;999.90;;;0.70;99.90;;;;;;5094179;28;20028;-73
2024/01/16 03:25:16;;;;;;;1999.90;999.90;;;0.60;99.90;;;;;;5092665;28;20020;-69
2024/01/16 03:27:42;;;;;;;1999.90;999.90;;;0.60;99.90;;;;;;5094013;28;20044;-70
2024/01/16 03:30:08;;;;;;;1999.90;999.90;;;0.50;99.90;;;;;;5093528;28;20103;-69
2024/01/16 03:32:35;;;;;;;1999.90;999.90;;;0.50;99.90;;;;;;5079889;28;20283;-69
2024/01/16 03:35:01;;;;;;;1999.90;999.90;;;0.50;99.90;;;;;;5093268;28;20024;-69
2024/01/16 03:37:27;;;;;;;1999.90;999.90;;;0.40;99.90;;;;;;5093496;28;20308;-69
2024/01/16 03:39:54;;;;;;;1999.90;999.90;;;0.40;99.90;;;;;;5093484;28;20032;-70
2024/01/16 03:42:20;;;;;;;1999.90;999.90;;;0.40;99.90;;;;;;5093372;28;20016;-69
2024/01/16 03:44:46;;;;;;;1999.90;999.90;;;0.40;99.90;;;;;;5093705;28;20039;-69
2024/01/16 03:47:12;;;;;;;1999.90;999.90;;;0.50;99.90;;;;;;5092852;28;20044;-69
2024/01/16 03:49:38;;;;;;;1999.90;999.90;;;0.40;99.90;;;;;;5093359;28;20415;-69
2024/01/16 03:52:04;;;;;;;1999.90;999.90;;;0.50;99.90;;;;;;5075746;28;20028;-69
2024/01/16 03:54:30;;;;;;;1999.90;999.90;;;0.60;99.90;;;;;;5078943;28;20386;-70
2024/01/16 03:56:56;;;;;;;1999.90;999.90;;;0.60;99.90;;;;;;5093997;28;20107;-69
2024/01/16 03:59:23;;;;;;;1999.90;999.90;;;0.60;99.90;;;;;;5094429;28;20024;-69
2024/01/16 04:01:49;;;;;;;1999.90;999.90;;;0.60;99.90;;;;;;5075398;28;20062;-70
2024/01/16 04:04:15;;;;;;;1999.90;999.90;;;0.60;99.90;;;;;;5092516;28;20028;-70
2024/01/16 04:06:42;;;;;;;1999.90;999.90;;;0.60;99.90;;;;;;5093520;28;20132;-78
2024/01/16 04:09:09;;;;;;;1999.90;999.90;;;0.60;99.90;;;;;;5085488;28;20056;-71
2024/01/16 04:11:35;;;;;;;1999.90;999.90;;;0.60;99.90;;;;;;5086880;28;20074;-71
2024/01/16 04:14:01;;;;;;;1999.90;999.90;;;0.60;99.90;;;;;;5093068;28;20028;-71
2024/01/16 04:16:27;;;;;;;1999.90;999.90;;;0.50;99.90;;;;;;5076787;28;20107;-71
2024/01/16 04:18:53;;;;;;;1999.90;999.90;;;0.50;99.90;;;;;;5092986;28;20085;-71
2024/01/16 04:21:19;;;;;;;1999.90;999.90;;;0.50;99.90;;;;;;5092661;28;20036;-72
2024/01/16 04:23:45;;;;;;;1999.90;999.90;;;0.50;99.90;;;;;;5093240;28;20028;-71
2024/01/16 04:26:10;;;;;;;1999.90;999.90;;;0.50;99.90;;;;;;5092372;28;20036;-71
2024/01/16 04:28:39;;;;;;;1999.90;999.90;;;0.50;99.90;;;;;;5096316;28;20114;-71
2024/01/16 04:31:05;;;;;;;1999.90;999.90;;;0.50;99.90;;;;;;5091704;28;20119;-71
2024/01/16 04:33:31;;;;;;;1999.90;999.90;;;0.50;99.90;;;;;;5078745;28;20755;-71
2024/01/16 04:35:57;;;;;;;1999.90;999.90;;;0.60;99.90;;;;;;5080154;28;20025;-71
2024/01/16 04:38:23;;;;;;;1999.90;999.90;;;0.50;99.90;;;;;;5086480;28;20036;-71
2024/01/16 04:40:49;;;;;;;1999.90;999.90;;;0.50;99.90;;;;;;5091455;28;20024;-72
2024/01/16 04:43:15;;;;;;;1999.90;999.90;;;0.50;99.90;;;;;;5092760;28;20032;-71
2024/01/16 04:45:41;;;;;;;1999.90;999.90;;;0.50;99.90;;;;;;5074135;28;20024;-71
2024/01/16 04:48:08;;;;;;;1999.90;999.90;;;0.50;99.90;;;;;;5092935;28;20051;-71
2024/01/16 04:50:34;;;;;;;1999.90;999.90;;;0.40;99.90;;;;;;5091859;28;20428;-71
2024/01/16 04:53:01;;;;;;;1999.90;999.90;;;0.50;99.90;;;;;;5074460;28;20549;-71
2024/01/16 04:55:27;;;;;;;;;;;0.40;99.90;;;;;;5092702;28;20115;-71
2024/01/16 04:57:55;;;;;;;1999.90;999.90;;;0.40;99.90;;;;;;5086383;28;20314;-71
2024/01/16 05:00:21;;;;;;;1999.90;999.90;;;0.30;99.90;;;;;;5080485;28;20104;-71
2024/01/16 05:02:46;;;;;;;1999.90;999.90;;;0.30;99.90;;;;;;5090370;28;20031;-71
2024/01/16 05:05:13;;;;;;;1999.90;999.90;;;0.20;99.90;;;;;;5074203;28;20028;-71
2024/01/16 05:07:39;;;;;;;1999.90;999.90;;;0.20;99.90;;;;;;5090391;28;20035;-71
2024/01/16 05:10:06;;;;;;;1999.90;999.90;;;0.10;99.90;;;;;;5086012;28;20454;-71
2024/01/16 05:12:32;;;;;;;1999.90;999.90;;;0.10;99.90;;;;;;5092158;28;20296;-70
2024/01/16 05:14:58;;;;;;;1999.90;999.90;;;0.10;99.90;;;;;;5092090;28;20372;-70
2024/01/16 05:17:23;;;;;;;1999.90;999.90;;;0.10;99.90;;;;;;5062436;28;20029;-71
2024/01/16 05:19:49;;;;;;;1999.90;999.90;;;0.10;99.90;;;;;;5090256;28;20453;-70
2024/01/16 05:22:15;;;;;;;1999.90;999.90;;;0.00;99.90;;;;;;5092367;28;20078;-70
2024/01/16 05:24:41;;;;;;;1999.90;999.90;;;-0.10;99.90;;;;;;5091053;28;20427;-71
2024/01/16 05:27:06;;;;;;;1999.90;999.90;;;-0.10;99.90;;;;;;5092283;28;20024;-71
2024/01/16 05:29:32;;;;;;;1999.90;999.90;;;-0.10;99.90;;;;;;5096044;28;20035;-70
2024/01/16 05:31:58;;;;;;;1999.90;999.90;;;0.00;99.90;;;;;;5095432;28;20044;-71
2024/01/16 05:34:24;;;;;;;1999.90;999.90;;;0.00;99.90;;;;;;5084845;28;20024;-70
2024/01/16 05:36:50;;;;;;;1999.90;999.90;;;0.10;99.90;;;;;;5095489;28;20032;-71
2024/01/16 05:39:17;;;;;;;1999.90;999.90;;;0.20;99.90;;;;;;5096098;28;20020;-71
2024/01/16 05:41:42;;;;;;;;;;;0.20;99.90;;;;;;5096115;28;20024;-71
2024/01/16 05:44:08;;;;;;;1999.90;999.90;;;0.10;99.90;;;;;;5078765;28;19904;-72
2024/01/16 05:46:34;;;;;;;1999.90;999.90;;;0.10;99.90;;;;;;5095874;28;20028;-70
2024/01/16 05:48:59;;;;;;;1999.90;999.90;;;0.10;99.90;;;;;;5090908;28;20058;-71
2024/01/16 05:51:28;;;;;;;1999.90;999.90;;;0.20;99.90;;;;;;5095993;28;20016;-71
2024/01/16 05:53:54;;;;;;;1999.90;999.90;;;0.20;99.90;;;;;;5095109;28;20050;-72
2024/01/16 05:56:19;;;;;;;1999.90;999.90;;;0.40;99.90;;;;;;5095369;28;20423;-71
2024/01/16 05:58:45;;;;;;;1999.90;999.90;;;0.40;99.90;;;;;;5094160;28;20047;-71
2024/01/16 06:01:13;;;;;;;1999.90;999.90;;;0.40;99.90;;;;;;5095324;28;20028;-71
2024/01/16 06:03:39;;;;;;;1999.90;999.90;;;0.50;99.90;;;;;;5095450;28;20024;-71
2024/01/16 06:06:05;;;;;;;1999.90;999.90;;;0.50;99.90;;;;;;5092093;28;20169;-73
2024/01/16 06:08:31;;;;;;;1999.90;999.90;;;0.50;99.90;;;;;;5085888;28;20045;-71
2024/01/16 06:10:57;;;;;;;1999.90;999.90;;;0.50;99.90;;;;;;5094514;28;20441;-71
2024/01/16 06:13:23;;;;;;;1999.90;999.90;;;0.50;99.90;;;;;;5095282;28;20741;-71
2024/01/16 06:15:48;;;;;;;1999.90;999.90;;;0.50;99.90;;;;;;5085708;28;20024;-70
2024/01/16 06:18:14;;;;;;;1999.90;999.90;;;0.60;99.90;;;;;;5088029;28;20032;-71
2024/01/16 06:20:40;;;;;;;1999.90;999.90;;;0.60;99.90;;;;;;5075986;28;20031;-70
2024/01/16 06:23:05;;;;;;;1999.90;999.90;;;0.50;99.90;;;;;;5063907;28;20500;-71
2024/01/16 06:25:31;;;;;;;1999.90;999.90;;;0.50;99.90;;;;;;5094451;28;20374;-71
2024/01/16 06:27:57;;;;;;;1999.90;999.90;;;0.50;99.90;;;;;;5094993;28;20095;-71
2024/01/16 06:30:25;;;;;;;1999.90;999.90;;;0.60;99.90;;;;;;5094443;28;20016;-71
2024/01/16 06:32:51;;;;;;;1999.90;999.90;;;0.60;99.90;;;;;;5094771;28;20044;-72
2024/01/16 06:35:16;;;;;;;1999.90;999.90;;;0.60;99.90;;;;;;5085918;28;20027;-72
2024/01/16 06:37:43;;;;;;;1999.90;999.90;;;0.60;99.90;;;;;;5073384;28;20364;-71
2024/01/16 06:40:09;;;;;;;1999.90;999.90;;;0.60;99.90;;;;;;5070154;28;20373;-70
2024/01/16 06:42:38;;;;;;;1999.90;999.90;;;0.60;99.90;;;;;;5073874;28;20130;-70
2024/01/16 06:45:04;;;;;;;1999.90;999.90;;;0.70;99.90;;;;;;5089399;28;20494;-69
2024/01/16 06:47:31;;;;;;;1999.90;999.90;;;0.70;99.90;;;;;;5087018;28;20420;-71
2024/01/16 06:49:56;;;;;;;1999.90;999.90;;;0.70;99.90;;;;;;5094056;28;20028;-71
2024/01/16 06:52:22;;;;;;;1999.90;999.90;;;0.80;99.90;;;;;;5076500;28;20372;-69
2024/01/16 06:54:48;;;;;;;1999.90;999.90;;;0.70;99.90;;;;;;5094289;28;20411;-70
2024/01/16 06:57:14;;;;;;;1999.90;999.90;;;0.70;99.90;;;;;;5084502;28;20082;-71
2024/01/16 06:59:39;;;;;;;1999.90;999.90;;;0.70;99.90;;;;;;5091361;28;20028;-72
2024/01/16 07:02:05;;;;;;;1999.90;999.90;;;0.70;99.90;;;;;;5085533;28;20036;-71
2024/01/16 07:04:32;;;;;;;1999.90;999.90;;;0.70;99.90;;;;;;5073576;28;20020;-71
2024/01/16 07:06:59;;;;;;;1999.90;999.90;;;0.70;99.90;;;;;;5073011;28;20090;-71
2024/01/16 07:09:25;;;;;;;1999.90;999.90;;;0.70;99.90;;;;;;5090143;28;20032;-70
2024/01/16 07:11:51;;;;;;;1999.90;999.90;;;0.70;99.90;;;;;;5094291;28;20607;-71
2024/01/16 07:14:16;;;;;;;1999.90;999.90;;;0.70;99.90;;;;;;5091878;28;20090;-71
2024/01/16 07:16:43;;;;;;;1999.90;999.90;;;0.70;99.90;;;;;;5090303;28;20042;-70
2024/01/16 07:19:08;;;;;;;1999.90;999.90;;;0.60;99.90;;;;;;5079648;28;20169;-71
2024/01/16 07:21:35;;;;;;;1999.90;999.90;;;0.60;99.90;;;;;;5065848;28;20122;-71
2024/01/16 07:24:01;;;;;;;1999.90;999.90;;;0.60;99.90;;;;;;5092884;28;20032;-70
2024/01/16 07:26:26;;;;;;;1999.90;999.90;;;0.60;99.90;;;;;;5090664;28;20062;-71
2024/01/16 07:28:52;;;;;;;1999.90;999.90;;;0.60;99.90;;;;;;5074241;28;20119;-71
2024/01/16 07:31:18;;;;;;;1999.90;999.90;;;0.60;99.90;;;;;;5093247;28;20044;-71
2024/01/16 07:33:43;;;;;;;1999.90;999.90;;;0.50;99.90;;;;;;5084698;28;20027;-72
2024/01/16 07:36:12;;;;;;;1999.90;999.90;;;0.60;99.90;;;;;;5083152;28;20017;-71
2024/01/16 07:38:38;;;;;;;1999.90;999.90;;;0.60;99.90;;;;;;5082933;28;20055;-71
2024/01/16 07:41:05;;;;;;;1999.90;999.90;;;0.50;99.90;;;;;;5078639;28;20126;-71
2024/01/16 07:43:31;;;;;;;;;;;0.50;99.90;;;;;;5088471;28;20016;-71
2024/01/16 07:45:58;;;;;;;1999.90;999.90;;;0.50;99.90;;;;;;5090701;28;20019;-71
2024/01/16 07:48:24;;;;;;;1999.90;999.90;;;0.60;99.90;;;;;;5092147;28;20024;-70
2024/01/16 07:50:50;;;;;;;1999.90;999.90;;;0.50;99.90;;;;;;5073831;28;20385;-71
2024/01/16 07:53:16;;;;;;;1999.90;999.90;;;0.60;99.90;;;;;;5092576;28;20020;-71
2024/01/16 07:55:42;;;;;;;1999.90;999.90;;;0.60;99.90;;;;;;5088130;28;20425;-71
2024/01/16 07:58:11;;;;;;;1999.90;999.90;;;0.60;99.90;;;;;;5068417;28;20024;-71
2024/01/16 08:00:36;;;;;;;1999.90;999.90;;;0.60;99.90;;;;;;5073415;28;20498;-71
2024/01/16 08:03:03;;;;;;;1999.90;999.90;;;0.60;99.90;;;;;;5082083;28;20116;-71
2024/01/16 08:05:30;;;;;;;1999.90;999.90;;;0.60;99.90;;;;;;5070412;28;20512;-71
2024/01/16 08:07:56;;;;;;;1999.90;999.90;;;0.60;99.90;;;;;;5086577;28;20024;-71
2024/01/16 08:10:22;;;;;;;1999.90;999.90;;;0.60;99.90;;;;;;5081667;28;20050;-71
2024/01/16 08:12:47;;;;;;;1999.90;999.90;;;0.70;99.90;;;;;;5092062;28;20028;-71
2024/01/16 08:15:13;;;;;;;1999.90;999.90;;;0.60;99.90;;;;;;5087247;28;20099;-71
2024/01/16 08:17:39;;;;;;;1999.90;999.90;;;0.60;99.90;;;;;;5087021;28;20020;-72
2024/01/16 08:20:06;;;;;;;1999.90;999.90;;;0.60;99.90;;;;;;5071346;28;20043;-71
2024/01/16 08:22:31;;;;;;;1999.90;999.90;;;0.60;99.90;;;;;;5067077;28;20039;-71
2024/01/16 08:24:57;;;;;;;1999.90;999.90;;;0.50;99.90;;;;;;5070283;28;20032;-71
2024/01/16 08:27:23;;;;;;;1999.90;999.90;;;0.60;99.90;;;;;;5091752;28;20028;-71
2024/01/16 08:29:49;;;;;;;1999.90;999.90;;;0.50;99.90;;;;;;5092413;28;20032;-71
2024/01/16 08:32:15;;;;;;;;;;;0.50;99.90;;;;;;5083633;28;20035;-70
2024/01/16 08:34:41;;;;;;;1999.90;999.90;;;0.50;99.90;;;;;;5091557;28;19919;-71
2024/01/16 08:37:07;;;;;;;1999.90;999.90;;;0.50;99.90;;;;;;5089064;28;20031;-71
2024/01/16 08:39:33;;;;;;;1999.90;999.90;;;0.50;99.90;;;;;;5085453;28;20029;-72
2024/01/16 08:41:59;;;;;;;1999.90;999.90;;;0.50;99.90;;;;;;5082320;28;20020;-72
2024/01/16 08:44:25;;;;;;;1999.90;999.90;;;0.40;99.90;;;;;;5068942;28;20322;-71
2024/01/16 08:46:51;;;;;;;1999.90;999.90;;;0.50;99.90;;;;;;5061888;28;20028;-71
2024/01/16 08:49:17;;;;;;;1999.90;999.90;;;0.50;99.90;;;;;;5068056;28;20050;-72
2024/01/16 08:51:43;;;;;;;1999.90;999.90;;;0.60;99.90;;;;;;5091120;28;20043;-72
2024/01/16 08:54:08;;;;;;;1999.90;999.90;;;0.60;99.90;;;;;;5081611;28;20032;-71
2024/01/16 08:56:34;;;;;;;1999.90;999.90;;;0.70;99.90;;;;;;5072399;28;20024;-71
2024/01/16 08:59:00;;;;;;;1999.90;999.90;;;0.80;99.90;;;;;;5070338;28;20028;-71
2024/01/16 09:01:33;;;;;;;1999.90;999.90;;;0.70;99.90;;;;;;5063674;28;20107;-71
2024/01/16 09:04:00;;;;;;;1999.90;999.90;;;0.80;99.90;;;;;;5077552;28;20036;-71
2024/01/16 09:06:25;;;;;;;1999.90;999.90;;;0.80;99.90;;;;;;5096517;28;20070;-71
2024/01/16 09:08:52;;;;;;;1999.90;999.90;;;0.80;99.90;;;;;;5090575;28;20028;-72
2024/01/16 09:11:17;;;;;;;1999.90;999.90;;;0.70;99.90;;;;;;5092761;28;20074;-71
2024/01/16 09:13:43;;;;;;;1999.90;999.90;;;0.70;99.90;;;;;;5092215;28;20028;-72
2024/01/16 09:16:09;;;;;;;1999.90;999.90;;;0.70;99.90;;;;;;5095606;28;20032;-72
2024/01/16 09:18:35;;;;;;;1999.90;999.90;;;0.70;99.90;;;;;;5076004;28;20268;-72
2024/01/16 09:21:00;;;;;;;1999.90;999.90;;;0.70;99.90;;;;;;5072823;28;20032;-72
2024/01/16 09:23:26;;;;;;;1999.90;999.90;;;0.80;99.90;;;;;;5077565;28;20035;-72
2024/01/16 09:25:52;;;;;;;1999.90;999.90;;;0.80;99.90;;;;;;5078714;28;20335;-72
2024/01/16 09:28:18;;;;;;;1999.90;999.90;;;0.80;99.90;;;;;;5094439;28;20024;-71
2024/01/16 09:30:44;;;;;;;1999.90;999.90;;;0.80;99.90;;;;;;5095088;28;20017;-72
2024/01/16 09:33:10;;;;;;;1999.90;999.90;;;0.90;99.90;;;;;;5075934;28;20047;-71
2024/01/16 09:35:36;;;;;;;1999.90;999.90;;;1.00;99.90;;;;;;5078461;28;20330;-72
2024/01/16 09:38:04;;;;;;;1999.90;999.90;;;1.00;99.90;;;;;;5092412;28;20052;-72
2024/01/16 09:40:30;;;;;;;1999.90;999.90;;;1.00;99.90;;;;;;5077585;28;20024;-72
2024/01/16 09:42:56;;;;;;;1999.90;999.90;;;1.00;99.90;;;;;;5091583;28;20111;-70
2024/01/16 09:45:24;;;;;;;1999.90;999.90;;;1.10;99.90;;;;;;5096078;28;20443;-72
2024/01/16 09:47:51;;;;;;;1999.90;999.90;;;1.10;99.90;;;;;;5077178;28;20536;-72
2024/01/16 09:50:19;;;;;;;1999.90;999.90;;;1.10;99.90;;;;;;5089075;28;20026;-73
2024/01/16 09:52:48;;;;;;;1999.90;999.90;;;1.20;99.90;;;;;;5084710;28;20029;-72
2024/01/16 09:55:15;;;;;;;1999.90;999.90;;;1.20;99.90;;;;;;5082631;28;20009;-72
2024/01/16 09:57:42;;;;;;;1999.90;999.90;;;1.20;99.90;;;;;;5074907;28;20407;-72
2024/01/16 10:00:11;;;;;;;1999.90;999.90;;;1.20;99.90;;;;;;5094641;28;20106;-72
2024/01/16 10:02:41;;;;;;;1999.90;999.90;;;1.30;99.90;;;;;;5089505;28;20028;-72
2024/01/16 10:05:11;;;;;;;1999.90;999.90;;;1.30;99.90;;;;;;5084628;28;20060;-72
2024/01/16 10:07:44;;;;;;;1999.90;999.90;;;1.40;99.90;;;;;;5074744;28;20024;-72
2024/01/16 10:10:13;;;;;;;1999.90;999.90;;;1.40;99.90;;;;;;5079166;28;20229;-72
2024/01/16 10:12:40;;;;;;;1999.90;999.90;;;1.40;99.90;;;;;;5090723;28;20095;-73
2024/01/16 10:15:10;;;;;;;1999.90;999.90;;;1.40;99.90;;;;;;5092731;28;20020;-75
2024/01/16 10:17:40;;;;;;;1999.90;999.90;;;1.50;99.90;;;;;;5093322;28;20034;-75
2024/01/16 10:20:07;;;;;;;1999.90;999.90;;;1.50;99.90;;;;;;5094822;28;20070;-75
2024/01/16 10:22:33;;;;;;;1999.90;999.90;;;1.50;99.90;;;;;;5087990;28;20028;-74
2024/01/16 10:25:08;;;;;;;1999.90;999.90;;;1.60;99.90;;;;;;5091379;28;20085;-75
2024/01/16 10:27:39;;;;;;;1999.90;999.90;;;1.60;99.90;;;;;;5071090;28;20066;-73
2024/01/16 10:30:06;;;;;;;1999.90;999.90;;;1.60;99.90;;;;;;5078133;28;20035;-74
2024/01/16 10:32:39;;;;;;;1999.90;999.90;;;1.60;99.90;;;;;;5065709;28;20373;-73
2024/01/16 10:35:12;;;;;;;1999.90;999.90;;;1.70;99.90;;;;;;5083745;28;20020;-74
2024/01/16 10:37:44;;;;;;;1999.90;999.90;;;1.70;99.90;;;;;;5083107;28;20020;-75
2024/01/16 10:40:14;;;;;;;1999.90;999.90;;;1.70;99.90;;;;;;5091651;28;20086;-74
2024/01/16 10:42:39;;;;;;;1999.90;999.90;;;1.70;99.90;;;;;;5074475;28;20038;-73
2024/01/16 10:45:06;;;;;;;1999.90;999.90;;;1.70;99.90;;;;;;5081245;28;20016;-72
2024/01/16 10:47:36;;;;;;;1999.90;999.90;;;1.70;99.90;;;;;;5084238;28;20452;-74
2024/01/16 10:50:03;;;;;;;1999.90;999.90;;;1.70;99.90;;;;;;5099530;28;20040;-73
2024/01/16 10:52:30;;;;;;;;;;;1.70;99.90;;;;;;5089803;28;20111;-73
2024/01/16 10:54:59;;;;;;;1999.90;999.90;;;1.70;99.90;;;;;;5073522;28;20556;-73
2024/01/16 10:57:26;;;;;;;1999.90;999.90;;;1.70;99.90;;;;;;5090105;28;20024;-73
2024/01/16 11:00:06;;;;;;;1999.90;999.90;;;1.70;99.90;;;;;;5072392;28;20036;-72
2024/01/16 11:02:42;;;;;;;1999.90;999.90;;;1.70;99.90;;;;;;5092799;28;20020;-74
2024/01/16 11:05:11;;;;;;;1999.90;999.90;;;1.80;99.90;;;;;;5094117;28;20028;-75
2024/01/16 11:07:37;;;;;;;1999.90;999.90;;;1.80;99.90;;;;;;5084632;28;20037;-74
2024/01/16 11:10:03;;;;;;;1999.90;999.90;;;1.80;99.90;;;;;;5073912;28;20102;-74
2024/01/16 11:12:33;;;;;;;1999.90;999.90;;;1.90;99.90;;;;;;5087399;28;20031;-73
2024/01/16 11:15:07;;;;;;;1999.90;999.90;;;2.10;99.90;;;;;;5075828;28;20288;-74
2024/01/16 11:17:34;;;;;;;1999.90;999.90;;;2.20;99.90;;;;;;5074156;28;20020;-73
2024/01/16 11:20:00;;;;;;;1999.90;999.90;;;2.30;99.90;;;;;;5070001;28;20024;-76
2024/01/16 11:22:28;;;;;;;1999.90;999.90;;;2.40;99.90;;;;;;5093732;28;20026;-73
2024/01/16 11:25:13;;;;;;;1999.90;999.90;;;2.50;99.90;;;;;;5091917;28;20039;-73
2024/01/16 11:27:41;;;;;;;1999.90;999.90;;;2.50;99.90;;;;;;5082252;28;20024;-72
2024/01/16 11:30:07;;;;;;;1999.90;999.90;;;2.60;99.90;;;;;;5077201;28;20410;-73
2024/01/16 11:32:36;;;;;;;;;;;2.60;99.90;;;;;;5082397;28;20055;-72
2024/01/16 11:35:02;;;;;;;1999.90;999.90;;;2.60;99.90;;;;;;5090373;28;19912;-72
2024/01/16 11:37:31;;;;;;;1999.90;999.90;;;2.70;99.90;;;;;;5092875;28;20338;-73
2024/01/16 11:40:22;;;;;;;1999.90;999.90;;;2.70;99.90;;;;;;5087576;28;20111;-73
2024/01/16 11:42:52;;;;;;;1999.90;999.90;;;2.70;99.90;;;;;;5080858;28;20047;-73
2024/01/16 11:45:27;;;;;;;1999.90;999.90;;;2.70;99.90;;;;;;5076271;28;20032;-73
2024/01/16 11:48:12;;;;;;;1999.90;999.90;;;2.70;99.90;;;;;;5067377;28;20428;-73
2024/01/16 11:50:38;;;;;;;1999.90;999.90;;;2.70;99.90;;;;;;5085083;28;20040;-72
2024/01/16 11:53:04;;;;;;;1999.90;999.90;;;2.70;99.90;;;;;;5086205;28;20028;-72
2024/01/16 11:55:32;;;;;;;1999.90;999.90;;;2.60;99.90;;;;;;5089965;28;20039;-72
2024/01/16 11:58:21;;;;;;;1999.90;999.90;;;2.60;99.90;;;;;;5070877;28;20039;-72
2024/01/16 12:00:52;;;;;;;1999.90;999.90;;;2.50;99.90;;;;;;5070464;28;20052;-71
2024/01/16 12:03:21;;;;;;;1999.90;999.90;;;2.40;99.90;;;;;;5066599;28;20426;-72
2024/01/16 12:05:58;;;;;;;1999.90;999.90;;;2.30;99.90;;;;;;5072531;28;20024;-72
2024/01/16 12:08:24;;;;;;;1999.90;999.90;;;2.20;99.90;;;;;;5080969;28;20037;-73